sensor_id;sensor_type;location;lat;lon;timestamp;temperature;humidity
36654;DHT22;22650;49.350;20.898;2023-07-08T00:02:08;11.80;99.90
36654;DHT22;22650;49.350;20.898;2023-07-08T00:04:43;11.80;99.90
36654;DHT22;22650;49.350;20.898;2023-07-08T00:07:20;11.80;99.90
36654;DHT22;22650;49.350;20.898;2023-07-08T00:09:54;11.80;99.90
36654;DHT22;22650;49.350;20.898;2023-07-08T00:12:27;11.70;99.90
36654;DHT22;22650;49.350;20.898;2023-07-08T00:15:01;11.70;99.90
36654;DHT22;22650;49.350;20.898;2023-07-08T00:17:36;11.60;99.90
36654;DHT22;22650;49.350;20.898;2023-07-08T00:20:14;11.60;99.90
36654;DHT22;22650;49.350;20.898;2023-07-08T00:22:49;11.60;99.90
36654;DHT22;22650;49.350;20.898;2023-07-08T00:25:23;11.50;99.90
36654;DHT22;22650;49.350;20.898;2023-07-08T00:27:57;11.50;99.90
36654;DHT22;22650;49.350;20.898;2023-07-08T00:30:31;11.50;99.90
36654;DHT22;22650;49.350;20.898;2023-07-08T00:33:06;11.50;99.90
36654;DHT22;22650;49.350;20.898;2023-07-08T00:35:44;11.40;99.90
36654;DHT22;22650;49.350;20.898;2023-07-08T00:38:21;11.40;99.90
36654;DHT22;22650;49.350;20.898;2023-07-08T00:41:04;11.40;99.90
36654;DHT22;22650;49.350;20.898;2023-07-08T00:43:44;11.30;99.90
36654;DHT22;22650;49.350;20.898;2023-07-08T00:46:34;11.30;99.90
36654;DHT22;22650;49.350;20.898;2023-07-08T00:49:21;11.20;99.90
36654;DHT22;22650;49.350;20.898;2023-07-08T00:52:17;11.20;99.90
36654;DHT22;22650;49.350;20.898;2023-07-08T00:54:52;11.20;99.90
36654;DHT22;22650;49.350;20.898;2023-07-08T00:57:28;11.20;99.90
36654;DHT22;22650;49.350;20.898;2023-07-08T01:00:05;11.10;99.90
36654;DHT22;22650;49.350;20.898;2023-07-08T01:02:44;11.10;99.90
36654;DHT22;22650;49.350;20.898;2023-07-08T01:05:22;11.10;99.90
36654;DHT22;22650;49.350;20.898;2023-07-08T01:08:00;11.10;99.90
36654;DHT22;22650;49.350;20.898;2023-07-08T01:10:39;11.00;99.90
36654;DHT22;22650;49.350;20.898;2023-07-08T01:13:16;11.00;99.90
36654;DHT22;22650;49.350;20.898;2023-07-08T01:15:52;10.90;99.90
36654;DHT22;22650;49.350;20.898;2023-07-08T01:18:26;10.90;99.90
36654;DHT22;22650;49.350;20.898;2023-07-08T01:21:05;10.80;99.90
36654;DHT22;22650;49.350;20.898;2023-07-08T01:23:44;10.80;99.90
36654;DHT22;22650;49.350;20.898;2023-07-08T01:26:19;10.80;99.90
36654;DHT22;22650;49.350;20.898;2023-07-08T01:28:54;10.80;99.90
36654;DHT22;22650;49.350;20.898;2023-07-08T01:31:29;10.70;99.90
36654;DHT22;22650;49.350;20.898;2023-07-08T01:34:03;10.70;99.90
36654;DHT22;22650;49.350;20.898;2023-07-08T01:36:41;10.70;99.90
36654;DHT22;22650;49.350;20.898;2023-07-08T01:39:20;10.70;99.90
36654;DHT22;22650;49.350;20.898;2023-07-08T01:41:56;10.60;99.90
36654;DHT22;22650;49.350;20.898;2023-07-08T01:44:31;10.60;99.90
36654;DHT22;22650;49.350;20.898;2023-07-08T01:47:09;10.60;99.90
36654;DHT22;22650;49.350;20.898;2023-07-08T01:49:45;10.60;99.90
36654;DHT22;22650;49.350;20.898;2023-07-08T01:52:20;10.60;99.90
36654;DHT22;22650;49.350;20.898;2023-07-08T01:54:56;10.50;99.90
36654;DHT22;22650;49.350;20.898;2023-07-08T01:57:30;10.50;99.90
36654;DHT22;22650;49.350;20.898;2023-07-08T02:00:04;10.50;99.90
36654;DHT22;22650;49.350;20.898;2023-07-08T02:02:44;10.50;99.90
36654;DHT22;22650;49.350;20.898;2023-07-08T02:05:18;10.50;99.90
36654;DHT22;22650;49.350;20.898;2023-07-08T02:07:52;10.50;99.90
36654;DHT22;22650;49.350;20.898;2023-07-08T02:10:27;10.50;99.90
36654;DHT22;22650;49.350;20.898;2023-07-08T02:13:01;10.50;99.90
36654;DHT22;22650;49.350;20.898;2023-07-08T02:15:35;10.40;99.90
36654;DHT22;22650;49.350;20.898;2023-07-08T02:18:08;10.40;99.90
36654;DHT22;22650;49.350;20.898;2023-07-08T02:20:42;10.40;99.90
36654;DHT22;22650;49.350;20.898;2023-07-08T02:23:16;10.40;99.90
36654;DHT22;22650;49.350;20.898;2023-07-08T02:25:52;10.40;99.90
36654;DHT22;22650;49.350;20.898;2023-07-08T02:28:26;10.40;99.90
36654;DHT22;22650;49.350;20.898;2023-07-08T02:31:02;10.40;99.90
36654;DHT22;22650;49.350;20.898;2023-07-08T02:33:36;10.40;99.90
36654;DHT22;22650;49.350;20.898;2023-07-08T02:36:09;10.40;99.90
36654;DHT22;22650;49.350;20.898;2023-07-08T02:38:43;10.40;99.90
36654;DHT22;22650;49.350;20.898;2023-07-08T02:41:18;10.30;99.90
36654;DHT22;22650;49.350;20.898;2023-07-08T02:43:52;10.30;99.90
36654;DHT22;22650;49.350;20.898;2023-07-08T02:46:26;10.30;99.90
36654;DHT22;22650;49.350;20.898;2023-07-08T02:49:00;10.30;99.90
36654;DHT22;22650;49.350;20.898;2023-07-08T02:51:34;10.30;99.90
36654;DHT22;22650;49.350;20.898;2023-07-08T02:54:08;10.30;99.90
36654;DHT22;22650;49.350;20.898;2023-07-08T02:56:43;10.30;99.90
36654;DHT22;22650;49.350;20.898;2023-07-08T02:59:18;10.30;99.90
36654;DHT22;22650;49.350;20.898;2023-07-08T03:01:52;10.30;99.90
36654;DHT22;22650;49.350;20.898;2023-07-08T03:04:26;10.30;99.90
36654;DHT22;22650;49.350;20.898;2023-07-08T03:07:00;10.30;99.90
36654;DHT22;22650;49.350;20.898;2023-07-08T03:09:34;10.30;99.90
36654;DHT22;22650;49.350;20.898;2023-07-08T03:12:11;10.40;99.90
36654;DHT22;22650;49.350;20.898;2023-07-08T03:14:45;10.40;99.90
36654;DHT22;22650;49.350;20.898;2023-07-08T03:17:19;10.40;99.90
36654;DHT22;22650;49.350;20.898;2023-07-08T03:19:53;10.40;99.90
36654;DHT22;22650;49.350;20.898;2023-07-08T03:22:26;10.40;99.90
36654;DHT22;22650;49.350;20.898;2023-07-08T03:25:00;10.50;99.90
36654;DHT22;22650;49.350;20.898;2023-07-08T03:27:36;10.50;99.90
36654;DHT22;22650;49.350;20.898;2023-07-08T03:30:11;10.50;99.90
36654;DHT22;22650;49.350;20.898;2023-07-08T03:32:45;10.60;99.90
36654;DHT22;22650;49.350;20.898;2023-07-08T03:35:19;10.60;99.90
36654;DHT22;22650;49.350;20.898;2023-07-08T03:37:54;10.60;99.90
36654;DHT22;22650;49.350;20.898;2023-07-08T03:40:28;10.70;99.90
36654;DHT22;22650;49.350;20.898;2023-07-08T03:43:03;10.70;99.90
36654;DHT22;22650;49.350;20.898;2023-07-08T03:45:38;10.70;99.90
36654;DHT22;22650;49.350;20.898;2023-07-08T03:48:15;10.80;99.90
36654;DHT22;22650;49.350;20.898;2023-07-08T03:50:49;10.80;99.90
36654;DHT22;22650;49.350;20.898;2023-07-08T03:53:23;10.80;99.90
36654;DHT22;22650;49.350;20.898;2023-07-08T03:55:58;10.80;99.90
36654;DHT22;22650;49.350;20.898;2023-07-08T03:58:35;10.80;99.90
36654;DHT22;22650;49.350;20.898;2023-07-08T04:01:14;10.90;99.90
36654;DHT22;22650;49.350;20.898;2023-07-08T04:03:49;10.90;99.90
36654;DHT22;22650;49.350;20.898;2023-07-08T04:06:24;10.90;99.90
36654;DHT22;22650;49.350;20.898;2023-07-08T04:08:58;11.00;99.90
36654;DHT22;22650;49.350;20.898;2023-07-08T04:11:32;11.00;99.90
36654;DHT22;22650;49.350;20.898;2023-07-08T04:14:08;11.00;99.90
36654;DHT22;22650;49.350;20.898;2023-07-08T04:16:45;11.00;99.90
36654;DHT22;22650;49.350;20.898;2023-07-08T04:19:21;11.10;99.90
36654;DHT22;22650;49.350;20.898;2023-07-08T04:21:55;11.10;99.90
36654;DHT22;22650;49.350;20.898;2023-07-08T04:24:28;11.20;99.90
36654;DHT22;22650;49.350;20.898;2023-07-08T04:27:03;11.20;99.90
36654;DHT22;22650;49.350;20.898;2023-07-08T04:29:38;11.20;99.90
36654;DHT22;22650;49.350;20.898;2023-07-08T04:32:12;11.20;99.90
36654;DHT22;22650;49.350;20.898;2023-07-08T04:34:45;11.30;99.90
36654;DHT22;22650;49.350;20.898;2023-07-08T04:37:19;11.30;99.90
36654;DHT22;22650;49.350;20.898;2023-07-08T04:39:53;11.30;99.90
36654;DHT22;22650;49.350;20.898;2023-07-08T04:42:27;11.30;99.90
36654;DHT22;22650;49.350;20.898;2023-07-08T04:45:03;11.30;99.90
36654;DHT22;22650;49.350;20.898;2023-07-08T04:47:38;11.30;99.90
36654;DHT22;22650;49.350;20.898;2023-07-08T04:50:12;11.30;99.90
36654;DHT22;22650;49.350;20.898;2023-07-08T04:52:46;11.30;99.90
36654;DHT22;22650;49.350;20.898;2023-07-08T04:55:19;11.40;99.90
36654;DHT22;22650;49.350;20.898;2023-07-08T04:57:53;11.40;99.90
36654;DHT22;22650;49.350;20.898;2023-07-08T05:00:28;11.40;99.90
36654;DHT22;22650;49.350;20.898;2023-07-08T05:03:02;11.50;99.90
36654;DHT22;22650;49.350;20.898;2023-07-08T05:05:37;11.50;99.90
36654;DHT22;22650;49.350;20.898;2023-07-08T05:08:12;11.60;99.90
36654;DHT22;22650;49.350;20.898;2023-07-08T05:10:46;11.60;99.90
36654;DHT22;22650;49.350;20.898;2023-07-08T05:13:20;11.70;99.90
36654;DHT22;22650;49.350;20.898;2023-07-08T05:15:56;11.70;99.90
36654;DHT22;22650;49.350;20.898;2023-07-08T05:18:29;11.80;99.90
36654;DHT22;22650;49.350;20.898;2023-07-08T05:21:03;11.90;99.90
36654;DHT22;22650;49.350;20.898;2023-07-08T05:23:37;12.00;99.90
36654;DHT22;22650;49.350;20.898;2023-07-08T05:26:11;12.10;99.90
36654;DHT22;22650;49.350;20.898;2023-07-08T05:28:45;12.10;99.90
36654;DHT22;22650;49.350;20.898;2023-07-08T05:31:21;12.20;99.90
36654;DHT22;22650;49.350;20.898;2023-07-08T05:34:09;12.30;99.90
36654;DHT22;22650;49.350;20.898;2023-07-08T05:36:43;12.50;99.90
36654;DHT22;22650;49.350;20.898;2023-07-08T05:39:18;12.60;99.90
36654;DHT22;22650;49.350;20.898;2023-07-08T05:41:52;12.70;99.90
36654;DHT22;22650;49.350;20.898;2023-07-08T05:44:25;12.80;99.90
36654;DHT22;22650;49.350;20.898;2023-07-08T05:47:00;12.90;99.90
36654;DHT22;22650;49.350;20.898;2023-07-08T05:49:34;13.10;99.90
36654;DHT22;22650;49.350;20.898;2023-07-08T05:52:09;13.20;99.90
36654;DHT22;22650;49.350;20.898;2023-07-08T05:54:43;13.40;99.90
36654;DHT22;22650;49.350;20.898;2023-07-08T05:57:17;13.50;99.90
36654;DHT22;22650;49.350;20.898;2023-07-08T05:59:51;13.60;99.90
36654;DHT22;22650;49.350;20.898;2023-07-08T06:02:26;13.80;99.90
36654;DHT22;22650;49.350;20.898;2023-07-08T06:05:00;13.90;99.90
36654;DHT22;22650;49.350;20.898;2023-07-08T06:07:34;14.10;99.90
36654;DHT22;22650;49.350;20.898;2023-07-08T06:10:08;14.20;99.90
36654;DHT22;22650;49.350;20.898;2023-07-08T06:12:42;14.30;99.90
36654;DHT22;22650;49.350;20.898;2023-07-08T06:15:16;14.50;99.90
36654;DHT22;22650;49.350;20.898;2023-07-08T06:17:51;14.60;99.90
36654;DHT22;22650;49.350;20.898;2023-07-08T06:20:25;14.80;99.90
36654;DHT22;22650;49.350;20.898;2023-07-08T06:22:59;14.90;99.90
36654;DHT22;22650;49.350;20.898;2023-07-08T06:25:33;15.00;99.90
36654;DHT22;22650;49.350;20.898;2023-07-08T06:28:10;15.20;99.90
36654;DHT22;22650;49.350;20.898;2023-07-08T06:30:44;15.40;99.90
36654;DHT22;22650;49.350;20.898;2023-07-08T06:33:19;15.50;99.90
36654;DHT22;22650;49.350;20.898;2023-07-08T06:35:53;15.70;99.90
36654;DHT22;22650;49.350;20.898;2023-07-08T06:38:26;15.90;99.90
36654;DHT22;22650;49.350;20.898;2023-07-08T06:41:00;16.10;99.90
36654;DHT22;22650;49.350;20.898;2023-07-08T06:43:34;16.20;99.90
36654;DHT22;22650;49.350;20.898;2023-07-08T06:46:23;16.40;99.90
36654;DHT22;22650;49.350;20.898;2023-07-08T06:49:00;16.60;99.90
36654;DHT22;22650;49.350;20.898;2023-07-08T06:51:36;16.80;99.90
36654;DHT22;22650;49.350;20.898;2023-07-08T06:54:10;17.00;99.90
36654;DHT22;22650;49.350;20.898;2023-07-08T06:56:44;17.10;99.90
36654;DHT22;22650;49.350;20.898;2023-07-08T06:59:18;17.30;99.90
36654;DHT22;22650;49.350;20.898;2023-07-08T07:01:52;17.50;99.90
36654;DHT22;22650;49.350;20.898;2023-07-08T07:04:29;17.70;99.90
36654;DHT22;22650;49.350;20.898;2023-07-08T07:07:05;18.00;99.90
36654;DHT22;22650;49.350;20.898;2023-07-08T07:09:39;18.10;99.90
36654;DHT22;22650;49.350;20.898;2023-07-08T07:12:12;18.30;99.90
36654;DHT22;22650;49.350;20.898;2023-07-08T07:14:47;18.50;99.90
36654;DHT22;22650;49.350;20.898;2023-07-08T07:17:24;18.70;99.90
36654;DHT22;22650;49.350;20.898;2023-07-08T07:20:04;18.90;99.90
36654;DHT22;22650;49.350;20.898;2023-07-08T07:22:39;19.10;99.90
36654;DHT22;22650;49.350;20.898;2023-07-08T07:25:13;19.30;99.90
36654;DHT22;22650;49.350;20.898;2023-07-08T07:27:48;19.50;99.90
36654;DHT22;22650;49.350;20.898;2023-07-08T07:30:22;19.80;99.90
36654;DHT22;22650;49.350;20.898;2023-07-08T07:32:58;20.00;99.90
36654;DHT22;22650;49.350;20.898;2023-07-08T07:35:34;20.20;99.90
36654;DHT22;22650;49.350;20.898;2023-07-08T07:38:07;20.40;99.90
36654;DHT22;22650;49.350;20.898;2023-07-08T07:40:41;20.60;99.90
36654;DHT22;22650;49.350;20.898;2023-07-08T07:43:15;20.90;99.90
36654;DHT22;22650;49.350;20.898;2023-07-08T07:45:50;21.10;99.90
36654;DHT22;22650;49.350;20.898;2023-07-08T07:48:24;21.30;99.90
36654;DHT22;22650;49.350;20.898;2023-07-08T07:51:00;21.50;99.90
36654;DHT22;22650;49.350;20.898;2023-07-08T07:53:33;21.80;99.90
36654;DHT22;22650;49.350;20.898;2023-07-08T07:56:07;22.00;99.90
36654;DHT22;22650;49.350;20.898;2023-07-08T07:58:41;22.30;99.90
36654;DHT22;22650;49.350;20.898;2023-07-08T08:01:15;22.50;99.90
36654;DHT22;22650;49.350;20.898;2023-07-08T08:03:49;22.80;99.90
36654;DHT22;22650;49.350;20.898;2023-07-08T08:06:26;23.00;99.90
36654;DHT22;22650;49.350;20.898;2023-07-08T08:09:00;23.20;99.90
36654;DHT22;22650;49.350;20.898;2023-07-08T08:11:34;23.40;99.90
36654;DHT22;22650;49.350;20.898;2023-07-08T08:14:07;23.60;97.50
36654;DHT22;22650;49.350;20.898;2023-07-08T08:16:41;23.80;97.20
36654;DHT22;22650;49.350;20.898;2023-07-08T08:19:15;24.00;97.60
36654;DHT22;22650;49.350;20.898;2023-07-08T08:21:50;24.30;95.90
36654;DHT22;22650;49.350;20.898;2023-07-08T08:24:24;24.50;91.20
36654;DHT22;22650;49.350;20.898;2023-07-08T08:26:59;24.70;90.70
36654;DHT22;22650;49.350;20.898;2023-07-08T08:29:33;24.80;88.60
36654;DHT22;22650;49.350;20.898;2023-07-08T08:32:07;25.10;88.70
36654;DHT22;22650;49.350;20.898;2023-07-08T08:34:41;25.30;87.40
36654;DHT22;22650;49.350;20.898;2023-07-08T08:37:19;25.60;90.30
36654;DHT22;22650;49.350;20.898;2023-07-08T08:39:52;25.80;84.30
36654;DHT22;22650;49.350;20.898;2023-07-08T08:42:30;26.10;82.40
36654;DHT22;22650;49.350;20.898;2023-07-08T08:45:05;26.40;80.50
36654;DHT22;22650;49.350;20.898;2023-07-08T08:47:42;26.60;75.40
36654;DHT22;22650;49.350;20.898;2023-07-08T08:50:30;26.80;78.60
36654;DHT22;22650;49.350;20.898;2023-07-08T08:53:10;27.00;72.20
36654;DHT22;22650;49.350;20.898;2023-07-08T08:55:48;27.30;73.00
36654;DHT22;22650;49.350;20.898;2023-07-08T08:58:30;27.50;70.80
36654;DHT22;22650;49.350;20.898;2023-07-08T09:01:11;27.80;67.20
36654;DHT22;22650;49.350;20.898;2023-07-08T09:03:50;28.00;71.70
36654;DHT22;22650;49.350;20.898;2023-07-08T09:06:26;28.30;69.70
36654;DHT22;22650;49.350;20.898;2023-07-08T09:09:05;28.60;68.20
36654;DHT22;22650;49.350;20.898;2023-07-08T09:11:44;28.80;65.60
36654;DHT22;22650;49.350;20.898;2023-07-08T09:14:26;29.10;68.90
36654;DHT22;22650;49.350;20.898;2023-07-08T09:17:15;29.30;65.20
36654;DHT22;22650;49.350;20.898;2023-07-08T09:20:15;29.60;68.70
36654;DHT22;22650;49.350;20.898;2023-07-08T09:22:56;29.90;67.10
36654;DHT22;22650;49.350;20.898;2023-07-08T09:25:35;30.10;68.00
36654;DHT22;22650;49.350;20.898;2023-07-08T09:28:13;30.30;64.10
36654;DHT22;22650;49.350;20.898;2023-07-08T09:30:48;30.50;63.60
36654;DHT22;22650;49.350;20.898;2023-07-08T09:33:24;30.60;63.30
36654;DHT22;22650;49.350;20.898;2023-07-08T09:35:58;30.80;62.60
36654;DHT22;22650;49.350;20.898;2023-07-08T09:38:33;30.90;60.40
36654;DHT22;22650;49.350;20.898;2023-07-08T09:41:08;30.70;60.20
36654;DHT22;22650;49.350;20.898;2023-07-08T09:43:42;30.50;61.30
36654;DHT22;22650;49.350;20.898;2023-07-08T09:46:17;30.60;61.60
36654;DHT22;22650;49.350;20.898;2023-07-08T09:48:52;30.70;61.90
36654;DHT22;22650;49.350;20.898;2023-07-08T09:51:26;31.00;61.60
36654;DHT22;22650;49.350;20.898;2023-07-08T09:53:59;31.10;60.20
36654;DHT22;22650;49.350;20.898;2023-07-08T09:56:36;31.30;61.90
36654;DHT22;22650;49.350;20.898;2023-07-08T09:59:13;31.60;60.60
36654;DHT22;22650;49.350;20.898;2023-07-08T10:01:47;31.80;58.60
36654;DHT22;22650;49.350;20.898;2023-07-08T10:04:22;32.10;60.50
36654;DHT22;22650;49.350;20.898;2023-07-08T10:06:55;32.40;60.20
36654;DHT22;22650;49.350;20.898;2023-07-08T10:09:31;32.60;59.10
36654;DHT22;22650;49.350;20.898;2023-07-08T10:12:08;32.80;58.20
36654;DHT22;22650;49.350;20.898;2023-07-08T10:14:47;33.00;53.90
36654;DHT22;22650;49.350;20.898;2023-07-08T10:17:22;33.00;54.70
36654;DHT22;22650;49.350;20.898;2023-07-08T10:19:56;33.20;56.30
36654;DHT22;22650;49.350;20.898;2023-07-08T10:22:39;33.40;56.70
36654;DHT22;22650;49.350;20.898;2023-07-08T10:25:26;33.50;57.20
36654;DHT22;22650;49.350;20.898;2023-07-08T10:28:19;33.50;56.90
36654;DHT22;22650;49.350;20.898;2023-07-08T10:31:16;33.60;53.60
36654;DHT22;22650;49.350;20.898;2023-07-08T10:34:05;33.70;52.80
36654;DHT22;22650;49.350;20.898;2023-07-08T10:36:47;33.90;55.40
36654;DHT22;22650;49.350;20.898;2023-07-08T10:39:41;33.70;53.20
36654;DHT22;22650;49.350;20.898;2023-07-08T10:42:31;33.60;53.10
36654;DHT22;22650;49.350;20.898;2023-07-08T10:45:12;33.50;50.80
36654;DHT22;22650;49.350;20.898;2023-07-08T10:47:57;33.50;52.40
36654;DHT22;22650;49.350;20.898;2023-07-08T10:50:48;33.70;51.70
36654;DHT22;22650;49.350;20.898;2023-07-08T10:53:38;33.90;52.60
36654;DHT22;22650;49.350;20.898;2023-07-08T10:56:20;33.90;51.90
36654;DHT22;22650;49.350;20.898;2023-07-08T10:59:28;34.30;54.40
36654;DHT22;22650;49.350;20.898;2023-07-08T11:02:26;34.50;53.10
36654;DHT22;22650;49.350;20.898;2023-07-08T11:05:14;34.50;49.40
36654;DHT22;22650;49.350;20.898;2023-07-08T11:07:53;34.40;55.00
36654;DHT22;22650;49.350;20.898;2023-07-08T11:10:31;34.50;54.40
36654;DHT22;22650;49.350;20.898;2023-07-08T11:13:12;34.60;53.00
36654;DHT22;22650;49.350;20.898;2023-07-08T11:15:50;34.60;53.00
36654;DHT22;22650;49.350;20.898;2023-07-08T11:18:33;34.70;53.60
36654;DHT22;22650;49.350;20.898;2023-07-08T11:21:11;34.70;55.30
36654;DHT22;22650;49.350;20.898;2023-07-08T11:23:51;34.80;54.50
36654;DHT22;22650;49.350;20.898;2023-07-08T11:26:29;34.80;53.00
36654;DHT22;22650;49.350;20.898;2023-07-08T11:29:12;34.90;54.90
36654;DHT22;22650;49.350;20.898;2023-07-08T11:31:48;34.60;50.70
36654;DHT22;22650;49.350;20.898;2023-07-08T11:34:25;34.40;53.20
36654;DHT22;22650;49.350;20.898;2023-07-08T11:37:00;34.30;54.40
36654;DHT22;22650;49.350;20.898;2023-07-08T11:39:40;34.30;54.00
36654;DHT22;22650;49.350;20.898;2023-07-08T11:42:19;34.30;53.50
36654;DHT22;22650;49.350;20.898;2023-07-08T11:44:56;34.50;53.70
36654;DHT22;22650;49.350;20.898;2023-07-08T11:47:37;34.50;54.30
36654;DHT22;22650;49.350;20.898;2023-07-08T11:50:19;34.50;54.00
36654;DHT22;22650;49.350;20.898;2023-07-08T11:52:58;34.70;54.50
36654;DHT22;22650;49.350;20.898;2023-07-08T11:55:36;34.70;53.70
36654;DHT22;22650;49.350;20.898;2023-07-08T11:58:21;34.90;55.30
36654;DHT22;22650;49.350;20.898;2023-07-08T12:00:58;35.10;54.40
36654;DHT22;22650;49.350;20.898;2023-07-08T12:03:36;35.40;53.20
36654;DHT22;22650;49.350;20.898;2023-07-08T12:06:46;35.60;53.50
36654;DHT22;22650;49.350;20.898;2023-07-08T12:09:25;35.80;54.30
36654;DHT22;22650;49.350;20.898;2023-07-08T12:12:03;35.80;53.00
36654;DHT22;22650;49.350;20.898;2023-07-08T12:14:38;35.80;53.00
36654;DHT22;22650;49.350;20.898;2023-07-08T12:17:13;35.70;53.00
36654;DHT22;22650;49.350;20.898;2023-07-08T12:19:49;35.70;54.50
36654;DHT22;22650;49.350;20.898;2023-07-08T12:22:25;35.60;53.10
36654;DHT22;22650;49.350;20.898;2023-07-08T12:24:59;35.60;53.50
36654;DHT22;22650;49.350;20.898;2023-07-08T12:27:38;35.60;54.30
36654;DHT22;22650;49.350;20.898;2023-07-08T12:30:14;35.50;52.70
36654;DHT22;22650;49.350;20.898;2023-07-08T12:32:48;35.40;51.40
36654;DHT22;22650;49.350;20.898;2023-07-08T12:35:25;35.20;51.10
36654;DHT22;22650;49.350;20.898;2023-07-08T12:38:16;35.00;50.80
36654;DHT22;22650;49.350;20.898;2023-07-08T12:40:51;34.80;54.20
36654;DHT22;22650;49.350;20.898;2023-07-08T12:43:26;34.60;50.80
36654;DHT22;22650;49.350;20.898;2023-07-08T12:46:03;34.40;51.00
36654;DHT22;22650;49.350;20.898;2023-07-08T12:48:49;34.30;52.10
36654;DHT22;22650;49.350;20.898;2023-07-08T12:51:28;34.20;54.30
36654;DHT22;22650;49.350;20.898;2023-07-08T12:54:09;34.20;52.60
36654;DHT22;22650;49.350;20.898;2023-07-08T12:56:54;34.20;51.80
36654;DHT22;22650;49.350;20.898;2023-07-08T12:59:34;34.30;52.00
36654;DHT22;22650;49.350;20.898;2023-07-08T13:02:16;34.30;50.20
36654;DHT22;22650;49.350;20.898;2023-07-08T13:04:56;34.30;52.20
36654;DHT22;22650;49.350;20.898;2023-07-08T13:07:35;34.30;50.90
36654;DHT22;22650;49.350;20.898;2023-07-08T13:10:19;34.20;52.10
36654;DHT22;22650;49.350;20.898;2023-07-08T13:12:56;34.40;52.90
36654;DHT22;22650;49.350;20.898;2023-07-08T13:15:35;34.60;54.10
36654;DHT22;22650;49.350;20.898;2023-07-08T13:18:15;34.80;53.60
36654;DHT22;22650;49.350;20.898;2023-07-08T13:20:51;34.90;52.00
36654;DHT22;22650;49.350;20.898;2023-07-08T13:23:32;35.00;50.50
36654;DHT22;22650;49.350;20.898;2023-07-08T13:26:14;35.10;52.80
36654;DHT22;22650;49.350;20.898;2023-07-08T13:28:49;35.10;49.70
36654;DHT22;22650;49.350;20.898;2023-07-08T13:31:23;35.20;51.10
36654;DHT22;22650;49.350;20.898;2023-07-08T13:33:57;35.20;51.10
36654;DHT22;22650;49.350;20.898;2023-07-08T13:36:33;35.20;50.00
36654;DHT22;22650;49.350;20.898;2023-07-08T13:39:14;35.20;48.90
36654;DHT22;22650;49.350;20.898;2023-07-08T13:41:50;35.10;48.50
36654;DHT22;22650;49.350;20.898;2023-07-08T13:44:24;35.20;49.70
36654;DHT22;22650;49.350;20.898;2023-07-08T13:46:59;35.20;50.10
36654;DHT22;22650;49.350;20.898;2023-07-08T13:49:39;35.10;48.20
36654;DHT22;22650;49.350;20.898;2023-07-08T13:52:17;35.00;48.70
36654;DHT22;22650;49.350;20.898;2023-07-08T13:54:53;34.90;48.60
36654;DHT22;22650;49.350;20.898;2023-07-08T13:57:33;34.60;50.40
36654;DHT22;22650;49.350;20.898;2023-07-08T14:00:08;34.50;49.90
36654;DHT22;22650;49.350;20.898;2023-07-08T14:02:47;34.60;52.20
36654;DHT22;22650;49.350;20.898;2023-07-08T14:05:21;34.70;51.70
36654;DHT22;22650;49.350;20.898;2023-07-08T14:07:54;34.60;50.00
36654;DHT22;22650;49.350;20.898;2023-07-08T14:10:28;34.60;50.30
36654;DHT22;22650;49.350;20.898;2023-07-08T14:13:03;34.70;49.50
36654;DHT22;22650;49.350;20.898;2023-07-08T14:15:37;34.70;49.30
36654;DHT22;22650;49.350;20.898;2023-07-08T14:18:12;34.60;48.20
36654;DHT22;22650;49.350;20.898;2023-07-08T14:20:46;34.40;47.70
36654;DHT22;22650;49.350;20.898;2023-07-08T14:23:19;34.20;48.10
36654;DHT22;22650;49.350;20.898;2023-07-08T14:25:53;33.90;47.50
36654;DHT22;22650;49.350;20.898;2023-07-08T14:28:28;33.80;47.00
36654;DHT22;22650;49.350;20.898;2023-07-08T14:31:02;33.70;47.30
36654;DHT22;22650;49.350;20.898;2023-07-08T14:33:36;33.80;48.90
36654;DHT22;22650;49.350;20.898;2023-07-08T14:36:10;33.90;49.30
36654;DHT22;22650;49.350;20.898;2023-07-08T14:38:44;34.00;49.00
36654;DHT22;22650;49.350;20.898;2023-07-08T14:41:18;34.20;49.30
36654;DHT22;22650;49.350;20.898;2023-07-08T14:43:54;34.20;48.70
36654;DHT22;22650;49.350;20.898;2023-07-08T14:46:28;34.20;47.80
36654;DHT22;22650;49.350;20.898;2023-07-08T14:49:11;34.10;47.40
36654;DHT22;22650;49.350;20.898;2023-07-08T14:51:48;34.00;46.40
36654;DHT22;22650;49.350;20.898;2023-07-08T14:54:22;33.80;47.80
36654;DHT22;22650;49.350;20.898;2023-07-08T14:56:56;33.60;46.90
36654;DHT22;22650;49.350;20.898;2023-07-08T14:59:33;33.50;47.20
36654;DHT22;22650;49.350;20.898;2023-07-08T15:02:18;33.40;47.30
36654;DHT22;22650;49.350;20.898;2023-07-08T15:04:52;33.30;47.20
36654;DHT22;22650;49.350;20.898;2023-07-08T15:07:26;33.20;46.30
36654;DHT22;22650;49.350;20.898;2023-07-08T15:10:00;33.00;45.10
36654;DHT22;22650;49.350;20.898;2023-07-08T15:12:33;32.80;44.70
36654;DHT22;22650;49.350;20.898;2023-07-08T15:15:14;32.70;45.30
36654;DHT22;22650;49.350;20.898;2023-07-08T15:17:49;32.60;45.20
36654;DHT22;22650;49.350;20.898;2023-07-08T15:20:24;32.50;45.80
36654;DHT22;22650;49.350;20.898;2023-07-08T15:22:58;32.40;45.40
36654;DHT22;22650;49.350;20.898;2023-07-08T15:25:32;32.40;45.00
36654;DHT22;22650;49.350;20.898;2023-07-08T15:28:11;32.50;45.80
36654;DHT22;22650;49.350;20.898;2023-07-08T15:30:50;32.40;43.90
36654;DHT22;22650;49.350;20.898;2023-07-08T15:33:24;32.40;44.80
36654;DHT22;22650;49.350;20.898;2023-07-08T15:35:58;32.40;45.10
36654;DHT22;22650;49.350;20.898;2023-07-08T15:38:31;32.30;45.00
36654;DHT22;22650;49.350;20.898;2023-07-08T15:41:05;32.20;43.90
36654;DHT22;22650;49.350;20.898;2023-07-08T15:43:41;32.20;44.00
36654;DHT22;22650;49.350;20.898;2023-07-08T15:46:17;32.20;44.00
36654;DHT22;22650;49.350;20.898;2023-07-08T15:48:51;32.10;45.30
36654;DHT22;22650;49.350;20.898;2023-07-08T15:51:25;32.10;45.80
36654;DHT22;22650;49.350;20.898;2023-07-08T15:53:59;31.90;45.70
36654;DHT22;22650;49.350;20.898;2023-07-08T15:56:32;31.80;45.50
36654;DHT22;22650;49.350;20.898;2023-07-08T15:59:11;31.70;44.80
36654;DHT22;22650;49.350;20.898;2023-07-08T16:01:48;31.70;46.00
36654;DHT22;22650;49.350;20.898;2023-07-08T16:04:24;31.60;46.10
36654;DHT22;22650;49.350;20.898;2023-07-08T16:06:59;31.60;46.40
36654;DHT22;22650;49.350;20.898;2023-07-08T16:09:33;31.50;45.60
36654;DHT22;22650;49.350;20.898;2023-07-08T16:12:09;31.40;45.00
36654;DHT22;22650;49.350;20.898;2023-07-08T16:14:44;31.30;45.50